Time;durP1;ratioP1;P1;durP2;ratioP2;P2;SDS_P1;SDS_P2;PMS_P1;PMS_P2;Temp;Humidity;BMP_temperature;BMP_pressure;BME280_temperature;BME280_humidity;BME280_pressure;Samples;Min_cycle;Max_cycle;Signal;HPM_P1;HPM_P2
2021/07/04 00:00:16;;;;;;;9.05;6.62;;;;;;;20.20;90.89;98070.04;1870676;76;22135;-65
2021/07/04 00:02:53;;;;;;;10.53;6.22;;;;;;;20.16;91.01;98069.77;1870728;76;22112;-60
2021/07/04 00:05:46;;;;;;;7.47;5.67;;;;;;;20.09;91.17;98080.95;1889995;76;22551;-65
2021/07/04 00:08:24;;;;;;;8.85;6.40;;;;;;;20.03;91.52;98083.83;1870725;76;22125;-65
2021/07/04 00:11:04;;;;;;;11.70;5.83;;;;;;;19.99;91.73;98087.48;1870700;76;22121;-67
2021/07/04 00:13:39;;;;;;;9.08;6.30;;;;;;;19.97;91.87;98080.14;1870683;76;22555;-64
2021/07/04 00:16:16;;;;;;;8.28;6.10;;;;;;;19.96;91.99;98082.38;1819513;77;27977;-61
2021/07/04 00:18:58;;;;;;;8.40;5.72;;;;;;;20.03;92.07;98079.06;1890141;76;22197;-62
2021/07/04 00:21:53;;;;;;;8.03;5.50;;;;;;;20.00;91.94;98077.42;1870566;76;22133;-63
2021/07/04 00:24:47;;;;;;;10.60;7.17;;;;;;;19.95;92.01;98078.06;1870527;76;22252;-61
2021/07/04 00:27:23;;;;;;;10.05;6.42;;;;;;;19.92;92.10;98079.48;1873922;76;28365;-66
2021/07/04 00:29:58;;;;;;;14.53;6.60;;;;;;;19.89;92.35;98078.30;1870605;76;22584;-60
2021/07/04 00:32:53;;;;;;;7.80;6.00;;;;;;;19.82;92.54;98082.95;1870639;76;22135;-67
2021/07/04 00:35:30;;;;;;;7.37;5.42;;;;;;;19.78;92.89;98077.90;1870540;76;22570;-61
2021/07/04 00:38:07;;;;;;;8.53;6.50;;;;;;;19.75;93.08;98081.95;1854795;76;27938;-60
2021/07/04 00:40:43;;;;;;;8.88;5.83;;;;;;;19.74;93.28;98078.46;1890052;76;22132;-64
2021/07/04 00:43:19;;;;;;;11.20;6.05;;;;;;;19.68;93.44;98080.87;1889999;76;23696;-64
2021/07/04 00:45:54;;;;;;;9.25;6.30;;;;;;;19.64;93.72;98083.20;1870694;76;22584;-63
2021/07/04 00:48:28;;;;;;;8.28;5.87;;;;;;;19.62;93.97;98082.41;1870724;76;22596;-62
2021/07/04 00:51:04;;;;;;;8.05;7.05;;;;;;;19.62;94.14;98083.72;1870620;76;22154;-60
2021/07/04 00:53:39;;;;;;;8.60;5.90;;;;;;;19.59;94.32;98087.77;1870720;76;22182;-59
2021/07/04 00:56:15;;;;;;;11.48;6.40;;;;;;;19.56;94.46;98087.87;1870508;76;22176;-64
2021/07/04 00:58:50;;;;;;;7.83;6.45;;;;;;;19.54;94.58;98084.48;1890110;76;22150;-61
2021/07/04 01:01:24;;;;;;;8.45;6.30;;;;;;;19.53;94.68;98082.77;1870702;76;22172;-62
2021/07/04 01:03:59;;;;;;;8.40;6.08;;;;;;;19.45;94.60;98082.22;1890001;76;22164;-63
2021/07/04 01:06:41;;;;;;;8.63;6.67;;;;;;;19.49;94.74;98077.27;1869855;76;22136;-64
2021/07/04 01:09:16;;;;;;;7.83;6.62;;;;;;;19.50;94.90;98078.96;1870612;76;22174;-62
2021/07/04 01:11:57;;;;;;;8.80;6.50;;;;;;;19.47;94.95;98073.86;1869869;76;22129;-63
2021/07/04 01:14:32;;;;;;;7.33;5.62;;;;;;;19.46;94.99;98073.44;1870793;76;22145;-66
2021/07/04 01:17:09;;;;;;;8.95;6.37;;;;;;;19.45;95.04;98075.21;1889919;76;22167;-59
2021/07/04 01:19:44;;;;;;;8.28;6.25;;;;;;;19.41;95.10;98068.84;1854816;76;28345;-63
2021/07/04 01:22:21;;;;;;;8.68;6.47;;;;;;;19.44;95.22;98070.06;1889964;76;22153;-65
2021/07/04 01:24:54;;;;;;;8.05;6.80;;;;;;;19.37;95.31;98067.28;1854979;76;28025;-62
2021/07/04 01:27:32;;;;;;;8.18;6.37;;;;;;;19.32;95.66;98065.30;1889973;76;22596;-65
2021/07/04 01:30:11;;;;;;;7.55;5.83;;;;;;;19.26;95.86;98068.55;1870798;76;22515;-61
2021/07/04 01:32:45;;;;;;;8.63;6.35;;;;;;;19.27;96.17;98070.70;1870705;76;22136;-64
2021/07/04 01:35:39;;;;;;;11.97;7.00;;;;;;;19.17;96.53;98069.35;1870667;76;22137;-61
2021/07/04 01:38:15;;;;;;;11.95;7.33;;;;;;;19.21;96.61;98070.49;1870634;76;22148;-62
2021/07/04 01:40:50;;;;;;;9.28;6.20;;;;;;;19.13;96.84;98065.98;1870687;76;22148;-63
2021/07/04 01:43:26;;;;;;;9.13;6.78;;;;;;;19.09;97.26;98067.03;1873879;76;27941;-66
2021/07/04 01:46:01;;;;;;;9.18;6.97;;;;;;;19.12;97.49;98064.29;1854740;76;28342;-65
2021/07/04 01:48:36;;;;;;;9.45;6.37;;;;;;;19.19;97.59;98062.30;1890105;76;22139;-63
2021/07/04 01:51:11;;;;;;;9.73;7.25;;;;;;;19.15;97.73;98056.78;1889981;76;22142;-64
2021/07/04 01:53:47;;;;;;;9.35;6.55;;;;;;;19.08;98.06;98060.08;1850815;77;22187;-63
2021/07/04 01:56:22;;;;;;;12.60;6.75;;;;;;;19.05;98.30;98060.20;1870697;76;22116;-65
2021/07/04 01:58:56;;;;;;;9.58;7.37;;;;;;;19.01;98.54;98052.94;1870678;76;22118;-63
2021/07/04 02:02:09;;;;;;;11.28;7.35;;;;;;;18.95;98.80;98050.53;1870693;76;22576;-66
2021/07/04 02:05:07;;;;;;;12.20;7.20;;;;;;;18.92;99.18;98051.12;1870554;76;20102;-63
2021/07/04 02:08:03;;;;;;;8.88;7.15;;;;;;;18.89;99.48;98055.16;1870634;76;22121;-68
2021/07/04 02:10:39;;;;;;;10.90;8.40;;;;;;;18.85;99.85;98062.24;1870723;76;22169;-65
2021/07/04 02:13:14;;;;;;;10.15;7.40;;;;;;;18.82;100.00;98068.90;1889972;76;22170;-65
2021/07/04 02:15:55;;;;;;;10.80;7.10;;;;;;;18.81;100.00;98079.81;1869821;76;22160;-61
2021/07/04 02:18:30;;;;;;;10.68;7.58;;;;;;;18.86;100.00;98081.81;1854746;76;38206;-62
2021/07/04 02:21:05;;;;;;;8.65;7.22;;;;;;;18.97;100.00;98074.87;1870704;76;22144;-64
2021/07/04 02:23:39;;;;;;;11.75;7.33;;;;;;;18.98;100.00;98080.52;1870700;76;22173;-65
2021/07/04 02:26:14;;;;;;;10.30;7.70;;;;;;;18.94;100.00;98084.14;1889988;76;22526;-62
2021/07/04 02:29:09;;;;;;;10.00;7.47;;;;;;;18.90;100.00;98094.76;1889969;76;22115;-62
2021/07/04 02:31:45;;;;;;;10.82;8.85;;;;;;;18.95;100.00;98091.52;1873900;76;27918;-60
2021/07/04 02:34:20;;;;;;;8.53;6.97;;;;;;;19.03;100.00;98093.39;1870687;76;22176;-63
2021/07/04 02:36:56;;;;;;;9.18;7.67;;;;;;;19.09;100.00;98090.56;1854651;76;27898;-59
2021/07/04 02:39:36;;;;;;;11.20;8.18;;;;;;;19.21;100.00;98104.49;1889976;76;22160;-62
2021/07/04 02:42:11;;;;;;;12.35;8.08;;;;;;;19.26;100.00;98103.86;1890041;76;22152;-60
2021/07/04 02:44:45;;;;;;;9.70;8.08;;;;;;;19.27;99.95;98106.86;1889973;76;22119;-65
2021/07/04 02:47:30;;;;;;;11.03;7.85;;;;;;;19.31;99.79;98108.93;1869803;76;22246;-60
2021/07/04 02:50:06;;;;;;;10.95;8.30;;;;;;;19.36;99.62;98106.11;1870916;76;22203;-65
2021/07/04 02:52:40;;;;;;;9.65;8.25;;;;;;;19.40;99.45;98107.71;1870921;76;22128;-63
2021/07/04 02:55:15;;;;;;;11.75;8.33;;;;;;;19.47;99.10;98110.49;1890000;76;22168;-61
2021/07/04 02:57:51;;;;;;;11.18;8.70;;;;;;;19.51;98.84;98118.60;1870807;76;22146;-66
2021/07/04 03:00:28;;;;;;;12.18;9.08;;;;;;;19.53;98.56;98116.78;1854814;76;27968;-65
2021/07/04 03:03:07;;;;;;;10.18;8.75;;;;;;;19.62;98.30;98126.91;1889965;76;22237;-63
2021/07/04 03:05:42;;;;;;;9.90;8.53;;;;;;;19.69;97.98;98128.41;1854872;76;27910;-64
2021/07/04 03:08:18;;;;;;;11.53;8.93;;;;;;;19.76;97.73;98129.46;1854713;76;28088;-63
2021/07/04 03:10:54;;;;;;;11.15;8.98;;;;;;;19.84;97.46;98126.92;1854642;76;27902;-64
2021/07/04 03:13:29;;;;;;;13.20;8.43;;;;;;;19.93;97.09;98128.34;1870636;76;22161;-61
2021/07/04 03:16:11;;;;;;;11.75;8.85;;;;;;;20.03;96.88;98132.29;1889946;76;22650;-63
2021/07/04 03:18:46;;;;;;;11.70;8.20;;;;;;;20.18;96.53;98131.28;1890036;76;22144;-62
2021/07/04 03:21:20;;;;;;;13.40;9.03;;;;;;;20.34;95.92;98127.09;1889976;76;22120;-66
2021/07/04 03:23:55;;;;;;;11.55;8.38;;;;;;;20.50;95.31;98125.97;1889980;76;22132;-62
2021/07/04 03:26:30;;;;;;;13.32;9.13;;;;;;;20.54;94.44;98133.68;1870707;76;22172;-66
2021/07/04 03:29:06;;;;;;;11.30;9.23;;;;;;;20.57;94.06;98139.25;1854621;76;28363;-64
2021/07/04 03:31:40;;;;;;;9.68;8.15;;;;;;;20.73;93.78;98144.67;1889996;76;22140;-65
2021/07/04 03:34:16;;;;;;;12.78;9.10;;;;;;;20.91;93.09;98142.55;1835117;77;22151;-66
2021/07/04 03:36:51;;;;;;;12.70;9.28;;;;;;;21.02;92.28;98137.70;1874006;76;38218;-64
2021/07/04 03:39:26;;;;;;;11.63;10.10;;;;;;;21.16;91.67;98142.31;1870646;76;22158;-65
2021/07/04 03:42:22;;;;;;;13.83;10.93;;;;;;;21.26;90.92;98146.69;1870634;76;20348;-62
2021/07/04 03:44:58;;;;;;;15.38;11.95;;;;;;;21.31;90.55;98148.64;1873907;76;27901;-64
2021/07/04 03:47:34;;;;;;;11.90;10.43;;;;;;;21.42;90.12;98155.62;1854613;76;28113;-63
2021/07/04 03:50:10;;;;;;;14.95;9.63;;;;;;;21.57;89.47;98157.13;1870694;76;22101;-60
2021/07/04 03:53:07;;;;;;;14.47;10.48;;;;;;;21.60;88.92;98158.28;1870593;76;22612;-65
2021/07/04 03:55:41;;;;;;;12.58;8.50;;;;;;;21.64;88.58;98159.39;1870709;76;22120;-67
2021/07/04 03:58:16;;;;;;;12.33;8.38;;;;;;;21.67;88.28;98155.30;1889951;76;22116;-66
2021/07/04 04:00:51;;;;;;;12.00;8.88;;;;;;;21.68;87.88;98169.30;1873937;76;27886;-60
2021/07/04 04:03:32;;;;;;;11.12;7.58;;;;;;;21.73;87.76;98165.13;1869932;76;22110;-60
2021/07/04 04:06:14;;;;;;;11.18;8.38;;;;;;;21.63;87.74;98166.05;1889953;76;22149;-63
2021/07/04 04:08:49;;;;;;;10.48;8.43;;;;;;;21.61;87.91;98172.67;1890030;76;20097;-62
2021/07/04 04:11:24;;;;;;;10.13;8.08;;;;;;;21.61;88.05;98166.58;1873890;76;27939;-62
2021/07/04 04:14:00;;;;;;;10.18;8.38;;;;;;;21.62;87.91;98178.77;1870584;76;22136;-64
2021/07/04 04:16:35;;;;;;;10.03;8.58;;;;;;;21.58;87.94;98179.84;1889969;76;22562;-65
2021/07/04 04:19:10;;;;;;;11.88;10.08;;;;;;;21.57;88.11;98170.25;1854659;76;28333;-63
2021/07/04 04:21:48;;;;;;;18.52;14.60;;;;;;;21.65;87.91;98177.30;1870733;76;22210;-64
2021/07/04 04:24:22;;;;;;;22.27;18.85;;;;;;;21.71;87.85;98173.56;1889981;76;22139;-67
2021/07/04 04:26:57;;;;;;;21.30;17.30;;;;;;;21.77;87.57;98181.14;1870607;76;22179;-66
2021/07/04 04:29:32;;;;;;;16.37;14.23;;;;;;;21.68;87.61;98189.84;1835108;77;22200;-64
2021/07/04 04:32:08;;;;;;;14.35;12.43;;;;;;;21.56;88.03;98181.69;1889970;76;22136;-61
2021/07/04 04:35:01;;;;;;;14.73;11.73;;;;;;;21.42;88.48;98185.80;1870626;76;22132;-62
2021/07/04 04:37:42;;;;;;;11.83;9.88;;;;;;;21.46;88.75;98184.72;1869840;76;22189;-61
2021/07/04 04:40:17;;;;;;;12.70;10.55;;;;;;;21.51;88.47;98181.89;1870691;76;22137;-59
2021/07/04 04:42:53;;;;;;;12.30;9.60;;;;;;;21.58;88.32;98190.35;1870704;76;22108;-66
2021/07/04 04:45:28;;;;;;;12.25;10.18;;;;;;;21.70;88.08;98183.66;1870665;76;22527;-60
2021/07/04 04:48:03;;;;;;;13.53;10.75;;;;;;;21.87;87.53;98185.03;1889945;76;22613;-66
2021/07/04 04:50:38;;;;;;;16.70;13.00;;;;;;;21.92;86.96;98191.39;1890057;76;22144;-61
2021/07/04 04:53:14;;;;;;;17.80;13.55;;;;;;;21.92;86.93;98188.77;1873871;76;28124;-67
2021/07/04 04:55:49;;;;;;;15.18;12.68;;;;;;;21.98;86.85;98186.70;1889947;76;22571;-64
2021/07/04 04:58:23;;;;;;;17.40;14.20;;;;;;;22.02;86.84;98188.24;1870700;76;22117;-62
2021/07/04 05:00:56;;;;;;;15.03;12.33;;;;;;;22.12;86.86;98187.34;1870909;76;22559;-63
2021/07/04 05:03:31;;;;;;;20.92;14.35;;;;;;;22.24;86.54;98190.73;1889983;76;22120;-63
2021/07/04 05:06:05;;;;;;;18.02;13.08;;;;;;;22.35;86.23;98184.09;1835099;77;22582;-59
2021/07/04 05:08:40;;;;;;;18.02;13.70;;;;;;;22.49;85.79;98194.75;1870679;76;22109;-65
2021/07/04 05:11:15;;;;;;;19.15;14.07;;;;;;;22.75;85.17;98189.05;1870679;76;22132;-66
2021/07/04 05:14:11;;;;;;;21.85;16.27;;;;;;;23.06;84.15;98178.28;1889892;76;22156;-64
2021/07/04 05:16:53;;;;;;;20.02;15.18;;;;;;;23.32;83.16;98178.69;1890002;76;22259;-64
2021/07/04 05:19:27;;;;;;;18.20;14.13;;;;;;;23.42;82.60;98179.89;1870720;76;22206;-64
2021/07/04 05:22:03;;;;;;;24.05;18.73;;;;;;;23.56;81.88;98181.33;1854596;76;28372;-61
2021/07/04 05:24:38;;;;;;;20.70;17.80;;;;;;;23.65;81.13;98179.11;1889961;76;22144;-62
2021/07/04 05:27:13;;;;;;;19.37;16.15;;;;;;;23.59;80.77;98178.52;1890072;76;22135;-61
2021/07/04 05:30:09;;;;;;;19.75;16.20;;;;;;;23.60;80.92;98182.84;1870696;76;22143;-63
2021/07/04 05:32:44;;;;;;;20.02;16.77;;;;;;;23.55;80.80;98179.60;1870614;76;22129;-63
2021/07/04 05:35:20;;;;;;;27.35;18.07;;;;;;;23.52;81.11;98190.31;1870646;76;22120;-66
2021/07/04 05:37:55;;;;;;;23.38;18.37;;;;;;;23.55;81.39;98186.19;1854626;76;28056;-66
2021/07/04 05:40:30;;;;;;;18.12;15.00;;;;;;;23.71;81.04;98189.30;1890003;76;22140;-64
2021/07/04 05:43:05;;;;;;;16.02;12.50;;;;;;;23.69;80.60;98192.52;1870641;76;22156;-61
2021/07/04 05:45:41;;;;;;;17.75;15.32;;;;;;;23.66;80.60;98195.29;1854642;76;27912;-60
2021/07/04 05:48:41;;;;;;;16.67;13.72;;;;;;;23.73;80.41;98190.11;1870509;76;20101;-64
2021/07/04 05:51:15;;;;;;;16.10;13.53;;;;;;;23.75;80.11;98185.61;1889984;76;22116;-64
2021/07/04 05:53:50;;;;;;;15.53;13.88;;;;;;;23.90;80.03;98192.66;1890055;76;22135;-66
2021/07/04 05:56:26;;;;;;;13.83;11.55;;;;;;;24.05;79.08;98189.16;1870599;76;22132;-67
2021/07/04 05:59:20;;;;;;;15.50;11.85;;;;;;;24.15;78.58;98192.61;1889913;76;22149;-63
2021/07/04 06:01:56;;;;;;;14.63;12.78;;;;;;;24.21;78.01;98188.30;1870530;76;20360;-64
2021/07/04 06:04:30;;;;;;;15.93;13.10;;;;;;;24.70;76.96;98188.11;1870694;76;22165;-62
2021/07/04 06:07:05;;;;;;;17.35;13.00;;;;;;;25.04;75.58;98188.75;1870735;76;22145;-61
2021/07/04 06:09:40;;;;;;;15.72;12.98;;;;;;;25.72;74.08;98188.08;1890101;76;22143;-65
2021/07/04 06:12:16;;;;;;;13.32;11.60;;;;;;;26.85;71.23;98185.15;1870428;76;22176;-61
2021/07/04 06:14:51;;;;;;;13.83;12.05;;;;;;;28.12;66.89;98189.46;1870705;76;22120;-64
2021/07/04 06:17:26;;;;;;;15.38;13.10;;;;;;;29.56;61.62;98192.27;1854682;76;38617;-65
2021/07/04 06:20:02;;;;;;;14.28;12.13;;;;;;;30.64;58.07;98194.23;1870701;76;22579;-63
2021/07/04 06:22:38;;;;;;;12.13;10.72;;;;;;;31.41;54.79;98206.40;1873935;76;27915;-67
2021/07/04 06:25:14;;;;;;;11.68;10.05;;;;;;;32.00;53.48;98201.63;1889984;76;20212;-65
2021/07/04 06:27:51;;;;;;;11.83;10.58;;;;;;;32.81;50.68;98205.43;1889946;76;22127;-63
2021/07/04 06:30:27;;;;;;;10.45;8.60;;;;;;;33.49;48.05;98210.14;1890000;76;22453;-63
2021/07/04 06:33:01;;;;;;;8.55;7.60;;;;;;;33.90;47.07;98212.02;1889994;76;22302;-64
2021/07/04 06:35:55;;;;;;;10.88;7.08;;;;;;;34.91;44.84;98214.56;1870680;76;22082;-65
2021/07/04 06:38:29;;;;;;;9.40;6.70;;;;;;;36.37;42.04;98214.62;1870696;76;22290;-61
2021/07/04 06:41:04;;;;;;;9.58;7.15;;;;;;;37.05;39.75;98228.32;1870687;76;22067;-66
2021/07/04 06:44:00;;;;;;;7.87;6.83;;;;;;;37.42;39.34;98229.07;1889943;76;22060;-64
2021/07/04 06:46:34;;;;;;;8.78;7.53;;;;;;;38.17;37.76;98238.61;1870694;76;22616;-63
2021/07/04 06:49:28;;;;;;;7.45;6.65;;;;;;;38.63;36.15;98240.85;1870641;76;22114;-64
2021/07/04 06:52:04;;;;;;;7.17;6.15;;;;;;;38.95;35.69;98237.57;1870693;76;22059;-63
2021/07/04 06:54:45;;;;;;;8.93;6.00;;;;;;;39.67;34.74;98239.74;1869837;76;22050;-68
2021/07/04 06:57:27;;;;;;;8.10;6.17;;;;;;;40.67;32.88;98239.62;1870590;76;22046;-64
2021/07/04 07:00:10;;;;;;;7.80;6.08;;;;;;;41.15;32.14;98245.26;1870589;76;22083;-64
2021/07/04 07:02:44;;;;;;;7.45;6.58;;;;;;;41.33;31.23;98253.41;1889981;76;22090;-63
2021/07/04 07:05:21;;;;;;;7.30;6.05;;;;;;;41.43;30.71;98252.53;1870482;76;22050;-66
2021/07/04 07:08:15;;;;;;;8.50;6.10;;;;;;;40.78;31.29;98249.08;1870631;76;22252;-66
2021/07/04 07:10:49;;;;;;;7.10;6.17;;;;;;;39.81;32.34;98248.87;1870693;76;22078;-66
2021/07/04 07:13:25;;;;;;;7.63;6.80;;;;;;;38.21;34.60;98248.00;1874034;76;28319;-64
2021/07/04 07:15:59;;;;;;;9.13;6.15;;;;;;;36.93;36.85;98242.07;1889950;76;22046;-67
2021/07/04 07:18:35;;;;;;;8.00;6.70;;;;;;;35.78;38.98;98224.84;1889950;76;22054;-69
2021/07/04 07:21:29;;;;;;;9.80;7.50;;;;;;;36.43;38.89;98229.56;1870680;76;22054;-66
2021/07/04 07:24:05;;;;;;;9.95;6.90;;;;;;;37.74;36.88;98237.59;1870704;76;22055;-63
2021/07/04 07:26:39;;;;;;;9.20;6.70;;;;;;;38.86;35.46;98238.65;1854924;76;27933;-65
2021/07/04 07:29:14;;;;;;;7.20;5.47;;;;;;;39.69;33.51;98240.88;1889992;76;22062;-63
2021/07/04 07:32:08;;;;;;;7.37;6.12;;;;;;;39.63;33.20;98242.48;1870689;76;22046;-65
2021/07/04 07:34:43;;;;;;;7.75;6.47;;;;;;;39.35;33.45;98246.34;1854929;76;27891;-66
2021/07/04 07:37:36;;;;;;;9.38;5.30;;;;;;;39.09;33.95;98241.34;1870671;76;22054;-67
2021/07/04 07:40:12;;;;;;;6.87;5.33;;;;;;;38.63;34.65;98242.72;1870709;76;22105;-63
2021/07/04 07:42:47;;;;;;;7.00;5.53;;;;;;;39.18;33.45;98242.92;1855091;76;28405;-67
2021/07/04 07:45:45;;;;;;;8.50;5.50;;;;;;;38.98;33.34;98239.06;1854903;76;27919;-63
2021/07/04 07:48:19;;;;;;;7.67;5.95;;;;;;;37.93;35.14;98234.97;1870691;76;22462;-66
2021/07/04 07:50:53;;;;;;;6.83;6.10;;;;;;;37.04;36.70;98232.84;1889966;76;22089;-64
2021/07/04 07:53:28;;;;;;;6.47;5.65;;;;;;;37.09;37.04;98227.78;1870691;76;22136;-66
2021/07/04 07:56:03;;;;;;;7.70;5.83;;;;;;;37.66;36.54;98230.06;1870673;76;22054;-63
2021/07/04 07:58:43;;;;;;;6.95;4.62;;;;;;;37.29;36.59;98239.02;1889966;76;22046;-65
2021/07/04 08:01:16;;;;;;;7.65;4.95;;;;;;;36.73;36.88;98236.69;1870787;76;22062;-60
2021/07/04 08:03:52;;;;;;;6.08;4.67;;;;;;;36.74;37.00;98234.36;1870531;76;22082;-62
2021/07/04 08:06:27;;;;;;;5.75;4.17;;;;;;;36.92;36.85;98233.67;1890164;76;22057;-64
2021/07/04 08:09:04;;;;;;;9.08;4.58;;;;;;;37.13;36.07;98239.90;1870448;76;22054;-62
2021/07/04 08:11:57;;;;;;;6.85;5.17;;;;;;;37.79;35.37;98240.59;1889884;76;22481;-59
2021/07/04 08:14:32;;;;;;;6.05;4.70;;;;;;;37.77;35.62;98239.09;1889962;76;22061;-64
2021/07/04 08:17:06;;;;;;;6.10;4.37;;;;;;;37.78;35.39;98240.76;1870652;76;22469;-67
2021/07/04 08:19:41;;;;;;;5.20;4.10;;;;;;;37.99;35.00;98244.26;1870684;76;22157;-65
2021/07/04 08:22:16;;;;;;;8.13;4.90;;;;;;;38.16;34.62;98243.13;1870681;76;22094;-61
2021/07/04 08:24:50;;;;;;;6.55;4.72;;;;;;;37.63;35.47;98242.50;1870692;76;22583;-65
2021/07/04 08:27:31;;;;;;;7.62;4.85;;;;;;;37.13;36.40;98244.45;1869834;76;22095;-63
2021/07/04 08:30:09;;;;;;;6.20;4.90;;;;;;;36.40;37.42;98234.45;1870689;76;22066;-67
2021/07/04 08:32:44;;;;;;;9.03;5.08;;;;;;;35.52;39.15;98230.23;1870892;76;22075;-66
2021/07/04 08:35:18;;;;;;;6.80;5.25;;;;;;;34.52;40.88;98224.73;1870717;76;20352;-61
2021/07/04 08:38:13;;;;;;;7.25;5.20;;;;;;;33.75;42.33;98226.05;1870577;76;22553;-66
2021/07/04 08:40:54;;;;;;;6.12;4.65;;;;;;;33.62;42.96;98222.38;1869815;76;22050;-66
2021/07/04 08:43:33;;;;;;;5.97;4.90;;;;;;;34.52;41.14;98222.05;1870661;76;22509;-67
2021/07/04 08:46:09;;;;;;;6.35;4.67;;;;;;;35.25;39.83;98227.22;1870683;76;22631;-62
2021/07/04 08:48:45;;;;;;;7.78;4.45;;;;;;;36.36;38.56;98225.89;1870591;76;22504;-62
2021/07/04 08:51:19;;;;;;;6.33;4.75;;;;;;;37.44;36.91;98232.95;1889977;76;22136;-64
2021/07/04 08:53:54;;;;;;;6.80;4.37;;;;;;;37.58;35.51;98240.36;1870710;76;22559;-62
2021/07/04 08:56:28;;;;;;;6.10;4.62;;;;;;;36.94;36.00;98236.17;1870702;76;22051;-66
2021/07/04 08:59:04;;;;;;;5.30;4.30;;;;;;;36.40;36.80;98236.62;1870656;76;22059;-65
2021/07/04 09:01:59;;;;;;;7.12;4.60;;;;;;;35.22;37.98;98235.08;1854526;76;28336;-64
2021/07/04 09:04:33;;;;;;;5.78;3.98;;;;;;;34.50;39.11;98230.73;1870695;76;22180;-63
2021/07/04 09:07:08;;;;;;;8.93;4.20;;;;;;;33.87;40.01;98232.40;1870688;76;22054;-66
2021/07/04 09:09:43;;;;;;;6.50;4.08;;;;;;;33.46;41.17;98230.50;1870608;76;22128;-64
2021/07/04 09:12:18;;;;;;;8.53;4.10;;;;;;;33.25;40.58;98228.05;1889960;76;22057;-61
2021/07/04 09:15:19;;;;;;;6.58;4.30;;;;;;;33.02;40.59;98235.52;1870456;76;22078;-62
2021/07/04 09:17:57;;;;;;;7.12;4.40;;;;;;;32.95;41.15;98221.03;1870659;76;22482;-62
2021/07/04 09:20:52;;;;;;;5.97;3.70;;;;;;;33.08;40.38;98225.61;1870620;76;22252;-60
2021/07/04 09:23:37;;;;;;;6.30;4.58;;;;;;;33.31;40.25;98230.63;1873998;76;38816;-67
2021/07/04 09:26:43;;;;;;;5.03;3.60;;;;;;;33.41;39.80;98228.77;1870675;76;22220;-64
2021/07/04 09:29:41;;;;;;;7.03;3.77;;;;;;;33.16;39.63;98216.03;1861708;76;22217;-62
2021/07/04 09:32:25;;;;;;;6.83;4.08;;;;;;;32.84;40.30;98215.83;1870701;76;22236;-64
2021/07/04 09:35:20;;;;;;;4.65;3.80;;;;;;;32.82;40.86;98211.11;1889901;76;22054;-63
2021/07/04 09:37:55;;;;;;;8.18;4.60;;;;;;;32.85;41.15;98212.19;1889994;76;22142;-63
2021/07/04 09:40:30;;;;;;;7.33;4.95;;;;;;;33.03;42.19;98206.48;1870609;76;22087;-65
2021/07/04 09:45:56;;;;;;;7.85;5.03;;;;;;;33.07;42.66;98201.17;1870457;76;22082;-68
2021/07/04 09:48:51;;;;;;;6.85;4.65;;;;;;;32.89;42.66;98197.53;1870681;76;22062;-65
2021/07/04 09:51:45;;;;;;;7.47;5.15;;;;;;;32.21;43.38;98192.17;1870606;76;22216;-63
2021/07/04 09:54:41;;;;;;;6.72;4.65;;;;;;;31.60;44.84;98194.48;1889866;76;22128;-64
2021/07/04 09:57:15;;;;;;;6.80;4.42;;;;;;;31.46;45.21;98186.84;1869928;76;22248;-64
2021/07/04 10:00:17;;;;;;;6.17;4.30;;;;;;;31.57;44.97;98188.94;1870179;76;22098;-63
2021/07/04 10:03:14;;;;;;;6.40;4.30;;;;;;;31.59;44.70;98184.78;1852244;76;22105;-66
2021/07/04 10:06:00;;;;;;;6.33;4.35;;;;;;;31.21;45.10;98183.59;1852554;76;22678;-63
2021/07/04 10:08:40;;;;;;;7.87;5.00;;;;;;;30.74;45.74;98173.84;1874036;76;28339;-61
2021/07/04 10:11:33;;;;;;;6.87;5.10;;;;;;;30.45;47.05;98173.11;1856976;76;22272;-59
2021/07/04 10:14:15;;;;;;;6.40;4.67;;;;;;;30.30;47.64;98182.38;1854157;76;22184;-60
2021/07/04 10:16:51;;;;;;;6.03;4.33;;;;;;;30.23;47.78;98185.18;1855989;76;22164;-63
2021/07/04 10:19:29;;;;;;;6.50;4.35;;;;;;;30.20;48.28;98184.08;1850742;76;20226;-63
2021/07/04 10:22:07;;;;;;;6.08;4.33;;;;;;;30.02;48.81;98181.97;1865909;76;22116;-58
2021/07/04 10:25:06;;;;;;;7.78;4.60;;;;;;;29.81;49.20;98173.05;1865430;76;22522;-60
2021/07/04 10:27:42;;;;;;;7.25;4.97;;;;;;;29.54;49.60;98180.93;1856088;76;22072;-62
2021/07/04 10:30:19;;;;;;;6.90;4.90;;;;;;;29.37;49.66;98170.29;1850922;76;28313;-61
2021/07/04 10:33:16;;;;;;;6.60;4.73;;;;;;;29.33;49.87;98166.66;1844170;76;27936;-61
2021/07/04 10:39:00;;;;;;;5.87;4.50;;;;;;;29.11;51.09;98167.52;1818543;77;22605;-62
2021/07/04 10:41:57;;;;;;;6.92;4.78;;;;;;;28.82;50.79;98165.25;1855521;76;22302;-59
2021/07/04 10:44:48;;;;;;;6.40;5.05;;;;;;;28.70;50.69;98162.20;1853760;76;22288;-60
2021/07/04 10:47:27;;;;;;;6.50;4.90;;;;;;;28.69;51.14;98164.01;1850036;76;22140;-63
2021/07/04 10:50:21;;;;;;;6.95;5.10;;;;;;;28.74;51.12;98160.52;1852941;76;22143;-62
2021/07/04 10:52:56;;;;;;;7.87;5.25;;;;;;;28.90;51.11;98156.69;1830348;76;28443;-61
2021/07/04 10:55:33;;;;;;;8.33;4.85;;;;;;;29.21;50.17;98161.84;1833715;76;28086;-60
2021/07/04 10:58:08;;;;;;;6.95;4.47;;;;;;;29.33;48.72;98161.34;1852690;76;22644;-62
2021/07/04 11:00:43;;;;;;;8.35;4.70;;;;;;;29.09;48.12;98149.02;1852294;76;22567;-62
2021/07/04 11:03:30;;;;;;;5.75;4.42;;;;;;;28.93;48.61;98153.33;1850304;76;22181;-59
2021/07/04 11:06:53;;;;;;;7.20;4.50;;;;;;;29.10;48.80;98140.08;1852467;75;22262;-59
2021/07/04 11:09:58;;;;;;;7.53;4.70;;;;;;;29.55;47.27;98143.22;1859393;76;22306;-62
2021/07/04 11:12:34;;;;;;;6.65;4.35;;;;;;;29.91;46.49;98139.42;1854067;76;22248;-64
2021/07/04 11:15:20;;;;;;;7.17;4.65;;;;;;;30.14;46.41;98139.34;1828944;76;28142;-60
2021/07/04 11:18:10;;;;;;;7.53;4.80;;;;;;;30.32;46.38;98129.02;1851899;76;22168;-64
2021/07/04 11:20:50;;;;;;;10.38;5.10;;;;;;;30.48;46.66;98127.62;1848639;76;22158;-63
2021/07/04 11:24:15;;;;;;;8.80;5.75;;;;;;;30.65;47.80;98126.17;1853672;76;22752;-60
2021/07/04 11:27:25;;;;;;;7.72;5.80;;;;;;;30.51;47.83;98127.84;1868545;76;22173;-64
2021/07/04 11:30:27;;;;;;;6.85;5.35;;;;;;;30.03;48.70;98123.78;1861970;76;22135;-60
2021/07/04 11:33:25;;;;;;;8.30;5.70;;;;;;;29.73;49.43;98118.31;1873887;76;22148;-63
2021/07/04 11:36:19;;;;;;;8.20;5.30;;;;;;;29.61;49.91;98122.28;1852941;76;22159;-59
2021/07/04 11:39:08;;;;;;;7.30;5.20;;;;;;;29.69;49.83;98127.50;1851061;76;22148;-62
2021/07/04 11:41:53;;;;;;;6.70;5.25;;;;;;;29.89;49.67;98120.06;1847154;76;22259;-60
2021/07/04 11:44:34;;;;;;;5.97;5.03;;;;;;;30.00;48.83;98115.22;1851416;76;22326;-58
2021/07/04 11:47:29;;;;;;;7.62;5.25;;;;;;;30.17;47.89;98124.45;1854391;76;22200;-59
2021/07/04 11:50:08;;;;;;;6.28;5.00;;;;;;;30.23;47.93;98123.95;1856005;76;22090;-61
2021/07/04 11:52:43;;;;;;;8.75;5.37;;;;;;;30.40;47.76;98123.89;1852559;76;22617;-61
2021/07/04 11:55:18;;;;;;;7.47;5.58;;;;;;;30.48;47.41;98123.63;1856606;76;22187;-63
2021/07/04 11:57:53;;;;;;;7.62;5.55;;;;;;;30.55;47.62;98123.09;1852138;76;22112;-65
2021/07/04 12:00:34;;;;;;;8.03;5.67;;;;;;;30.59;46.91;98121.88;1862205;76;22179;-62
2021/07/04 12:03:10;;;;;;;10.20;5.60;;;;;;;30.53;46.96;98123.20;1852889;76;22500;-62
2021/07/04 12:05:44;;;;;;;7.08;5.75;;;;;;;30.48;47.10;98125.41;1852616;76;22116;-61
2021/07/04 12:08:19;;;;;;;8.45;5.67;;;;;;;30.38;47.03;98126.70;1861984;76;22079;-60
2021/07/04 12:10:53;;;;;;;8.60;6.12;;;;;;;30.25;47.35;98126.02;1859650;76;22182;-59
2021/07/04 12:13:36;;;;;;;7.85;5.95;;;;;;;30.11;47.46;98123.64;1844323;76;22199;-61
2021/07/04 12:16:13;;;;;;;6.75;5.45;;;;;;;29.97;47.67;98133.61;1852814;76;22330;-65
2021/07/04 12:19:08;;;;;;;8.15;6.28;;;;;;;29.80;47.54;98127.00;1854361;76;22215;-61
2021/07/04 12:21:43;;;;;;;10.75;5.97;;;;;;;29.70;47.68;98123.89;1859154;76;22848;-64
2021/07/04 12:24:17;;;;;;;8.23;5.90;;;;;;;29.63;47.96;98116.36;1864761;76;22181;-64
2021/07/04 12:26:52;;;;;;;7.30;6.00;;;;;;;29.55;48.07;98117.47;1843841;76;22186;-66
2021/07/04 12:29:26;;;;;;;7.25;5.90;;;;;;;29.51;48.62;98116.02;1855460;76;22136;-61
2021/07/04 12:32:04;;;;;;;9.95;6.08;;;;;;;29.48;49.09;98112.27;1856426;76;22147;-60
2021/07/04 12:34:40;;;;;;;8.25;6.22;;;;;;;29.48;49.89;98106.95;1856146;76;22199;-62